sensor_id;sensor_type;location;lat;lon;timestamp;temperature;humidity
57753;DHT22;43583;53.132;6.574;2023-04-25T00:00:59;6.70;99.90
57753;DHT22;43583;53.132;6.574;2023-04-25T00:03:25;6.80;99.90
57753;DHT22;43583;53.132;6.574;2023-04-25T00:05:51;6.70;99.90
57753;DHT22;43583;53.132;6.574;2023-04-25T00:08:17;6.70;99.90
57753;DHT22;43583;53.132;6.574;2023-04-25T00:10:42;6.70;99.90
57753;DHT22;43583;53.132;6.574;2023-04-25T00:13:08;6.70;99.90
57753;DHT22;43583;53.132;6.574;2023-04-25T00:15:34;6.70;99.90
57753;DHT22;43583;53.132;6.574;2023-04-25T00:18:01;6.70;99.90
57753;DHT22;43583;53.132;6.574;2023-04-25T00:20:27;6.60;99.90
57753;DHT22;43583;53.132;6.574;2023-04-25T00:22:52;6.60;99.90
57753;DHT22;43583;53.132;6.574;2023-04-25T00:25:21;6.60;99.90
57753;DHT22;43583;53.132;6.574;2023-04-25T00:27:46;6.60;99.90
57753;DHT22;43583;53.132;6.574;2023-04-25T00:30:12;6.60;99.90
57753;DHT22;43583;53.132;6.574;2023-04-25T00:32:38;6.60;99.90
57753;DHT22;43583;53.132;6.574;2023-04-25T00:35:04;6.70;99.90
57753;DHT22;43583;53.132;6.574;2023-04-25T00:37:29;6.70;99.90
57753;DHT22;43583;53.132;6.574;2023-04-25T00:39:57;6.70;99.90
57753;DHT22;43583;53.132;6.574;2023-04-25T00:42:23;6.70;99.90
57753;DHT22;43583;53.132;6.574;2023-04-25T00:44:50;6.70;99.90
57753;DHT22;43583;53.132;6.574;2023-04-25T00:47:17;6.70;99.90
57753;DHT22;43583;53.132;6.574;2023-04-25T00:49:43;6.60;99.90
57753;DHT22;43583;53.132;6.574;2023-04-25T00:52:09;6.60;99.90
57753;DHT22;43583;53.132;6.574;2023-04-25T00:54:34;6.50;99.90
57753;DHT22;43583;53.132;6.574;2023-04-25T00:57:00;6.50;99.90
57753;DHT22;43583;53.132;6.574;2023-04-25T00:59:27;6.50;99.90
57753;DHT22;43583;53.132;6.574;2023-04-25T01:01:53;6.50;99.90
57753;DHT22;43583;53.132;6.574;2023-04-25T01:04:19;6.40;99.90
57753;DHT22;43583;53.132;6.574;2023-04-25T01:06:45;6.40;99.90
57753;DHT22;43583;53.132;6.574;2023-04-25T01:09:12;6.40;99.90
57753;DHT22;43583;53.132;6.574;2023-04-25T01:11:38;6.40;99.90
57753;DHT22;43583;53.132;6.574;2023-04-25T01:14:05;6.30;99.90
57753;DHT22;43583;53.132;6.574;2023-04-25T01:16:32;6.30;99.90
57753;DHT22;43583;53.132;6.574;2023-04-25T01:18:58;6.30;99.90
57753;DHT22;43583;53.132;6.574;2023-04-25T01:21:24;6.30;99.90
57753;DHT22;43583;53.132;6.574;2023-04-25T01:23:54;6.20;99.90
57753;DHT22;43583;53.132;6.574;2023-04-25T01:26:19;6.20;99.90
57753;DHT22;43583;53.132;6.574;2023-04-25T01:28:47;6.20;99.90
57753;DHT22;43583;53.132;6.574;2023-04-25T01:31:14;6.20;99.90
57753;DHT22;43583;53.132;6.574;2023-04-25T01:33:41;6.20;99.90
57753;DHT22;43583;53.132;6.574;2023-04-25T01:36:06;6.10;99.90
57753;DHT22;43583;53.132;6.574;2023-04-25T01:38:32;6.10;99.90
57753;DHT22;43583;53.132;6.574;2023-04-25T01:40:58;6.20;99.90
57753;DHT22;43583;53.132;6.574;2023-04-25T01:43:24;6.10;99.90
57753;DHT22;43583;53.132;6.574;2023-04-25T01:45:50;6.10;99.90
57753;DHT22;43583;53.132;6.574;2023-04-25T01:48:16;6.10;99.90
57753;DHT22;43583;53.132;6.574;2023-04-25T01:50:43;6.10;99.90
57753;DHT22;43583;53.132;6.574;2023-04-25T01:53:09;6.10;99.90
57753;DHT22;43583;53.132;6.574;2023-04-25T01:55:36;6.10;99.90
57753;DHT22;43583;53.132;6.574;2023-04-25T01:58:02;6.00;99.90
57753;DHT22;43583;53.132;6.574;2023-04-25T02:00:29;6.00;99.90
57753;DHT22;43583;53.132;6.574;2023-04-25T02:02:58;6.00;99.90
57753;DHT22;43583;53.132;6.574;2023-04-25T02:05:23;6.00;99.90
57753;DHT22;43583;53.132;6.574;2023-04-25T02:07:49;6.00;99.90
57753;DHT22;43583;53.132;6.574;2023-04-25T02:10:15;6.00;99.90
57753;DHT22;43583;53.132;6.574;2023-04-25T02:12:40;6.00;99.90
57753;DHT22;43583;53.132;6.574;2023-04-25T02:15:06;6.00;99.90
57753;DHT22;43583;53.132;6.574;2023-04-25T02:17:32;5.90;99.90
57753;DHT22;43583;53.132;6.574;2023-04-25T02:19:57;5.90;99.90
57753;DHT22;43583;53.132;6.574;2023-04-25T02:22:23;5.90;99.90
57753;DHT22;43583;53.132;6.574;2023-04-25T02:24:49;5.90;99.90
57753;DHT22;43583;53.132;6.574;2023-04-25T02:27:14;5.90;99.90
57753;DHT22;43583;53.132;6.574;2023-04-25T02:29:40;5.80;99.90
57753;DHT22;43583;53.132;6.574;2023-04-25T02:32:06;5.80;99.90
57753;DHT22;43583;53.132;6.574;2023-04-25T02:34:32;5.80;99.90
57753;DHT22;43583;53.132;6.574;2023-04-25T02:36:57;5.80;99.90
57753;DHT22;43583;53.132;6.574;2023-04-25T02:39:23;5.90;99.90
57753;DHT22;43583;53.132;6.574;2023-04-25T02:41:51;5.80;99.90
57753;DHT22;43583;53.132;6.574;2023-04-25T02:44:16;5.80;99.90
57753;DHT22;43583;53.132;6.574;2023-04-25T02:46:42;5.90;99.90
57753;DHT22;43583;53.132;6.574;2023-04-25T02:49:08;5.90;99.90
57753;DHT22;43583;53.132;6.574;2023-04-25T02:51:33;5.90;99.90
57753;DHT22;43583;53.132;6.574;2023-04-25T02:53:59;5.90;99.90
57753;DHT22;43583;53.132;6.574;2023-04-25T02:56:24;5.80;99.90
57753;DHT22;43583;53.132;6.574;2023-04-25T02:58:51;5.90;99.90
57753;DHT22;43583;53.132;6.574;2023-04-25T03:01:17;5.80;99.90
57753;DHT22;43583;53.132;6.574;2023-04-25T03:03:43;5.80;99.90
57753;DHT22;43583;53.132;6.574;2023-04-25T03:06:09;5.80;99.90
57753;DHT22;43583;53.132;6.574;2023-04-25T03:08:34;5.90;99.90
57753;DHT22;43583;53.132;6.574;2023-04-25T03:11:00;5.80;99.90
57753;DHT22;43583;53.132;6.574;2023-04-25T03:13:26;5.80;99.90
57753;DHT22;43583;53.132;6.574;2023-04-25T03:15:52;5.80;99.90
57753;DHT22;43583;53.132;6.574;2023-04-25T03:18:18;5.80;99.90
57753;DHT22;43583;53.132;6.574;2023-04-25T03:20:44;5.80;99.90
57753;DHT22;43583;53.132;6.574;2023-04-25T03:23:09;5.80;99.90
57753;DHT22;43583;53.132;6.574;2023-04-25T03:25:35;5.80;99.90
57753;DHT22;43583;53.132;6.574;2023-04-25T03:28:01;5.70;99.90
57753;DHT22;43583;53.132;6.574;2023-04-25T03:30:26;5.70;99.90
57753;DHT22;43583;53.132;6.574;2023-04-25T03:32:52;5.70;99.90
57753;DHT22;43583;53.132;6.574;2023-04-25T03:35:18;5.60;99.90
57753;DHT22;43583;53.132;6.574;2023-04-25T03:37:43;5.60;99.90
57753;DHT22;43583;53.132;6.574;2023-04-25T03:40:11;5.50;99.90
57753;DHT22;43583;53.132;6.574;2023-04-25T03:42:36;5.40;99.90
57753;DHT22;43583;53.132;6.574;2023-04-25T03:45:02;5.30;99.90
57753;DHT22;43583;53.132;6.574;2023-04-25T03:47:28;5.20;99.90
57753;DHT22;43583;53.132;6.574;2023-04-25T03:49:54;5.00;99.90
57753;DHT22;43583;53.132;6.574;2023-04-25T03:52:20;5.00;99.90
57753;DHT22;43583;53.132;6.574;2023-04-25T03:54:45;4.90;99.90
57753;DHT22;43583;53.132;6.574;2023-04-25T03:57:11;4.90;99.90
57753;DHT22;43583;53.132;6.574;2023-04-25T03:59:37;4.80;99.90
57753;DHT22;43583;53.132;6.574;2023-04-25T04:02:02;4.80;99.90
57753;DHT22;43583;53.132;6.574;2023-04-25T04:04:28;4.70;99.90
57753;DHT22;43583;53.132;6.574;2023-04-25T04:06:54;4.70;99.90
57753;DHT22;43583;53.132;6.574;2023-04-25T04:09:19;4.60;99.90
57753;DHT22;43583;53.132;6.574;2023-04-25T04:11:46;4.60;99.90
57753;DHT22;43583;53.132;6.574;2023-04-25T04:14:11;4.50;99.90
57753;DHT22;43583;53.132;6.574;2023-04-25T04:16:37;4.50;99.90
57753;DHT22;43583;53.132;6.574;2023-04-25T04:19:03;4.40;99.90
57753;DHT22;43583;53.132;6.574;2023-04-25T04:21:28;4.50;99.90
57753;DHT22;43583;53.132;6.574;2023-04-25T04:23:54;4.40;99.90
57753;DHT22;43583;53.132;6.574;2023-04-25T04:26:20;4.50;99.90
57753;DHT22;43583;53.132;6.574;2023-04-25T04:28:49;4.50;99.90
57753;DHT22;43583;53.132;6.574;2023-04-25T04:31:20;4.50;99.90
57753;DHT22;43583;53.132;6.574;2023-04-25T04:33:46;4.50;99.90
57753;DHT22;43583;53.132;6.574;2023-04-25T04:36:12;4.40;99.90
57753;DHT22;43583;53.132;6.574;2023-04-25T04:38:38;4.50;99.90
57753;DHT22;43583;53.132;6.574;2023-04-25T04:41:05;4.40;99.90
57753;DHT22;43583;53.132;6.574;2023-04-25T04:43:31;4.40;99.90
57753;DHT22;43583;53.132;6.574;2023-04-25T04:46:00;4.40;99.90
57753;DHT22;43583;53.132;6.574;2023-04-25T04:48:25;4.50;99.90
57753;DHT22;43583;53.132;6.574;2023-04-25T04:50:51;4.50;99.90
57753;DHT22;43583;53.132;6.574;2023-04-25T04:53:17;4.50;99.90
57753;DHT22;43583;53.132;6.574;2023-04-25T04:55:43;4.70;99.90
57753;DHT22;43583;53.132;6.574;2023-04-25T04:58:08;4.80;99.90
57753;DHT22;43583;53.132;6.574;2023-04-25T05:00:34;5.00;99.90
57753;DHT22;43583;53.132;6.574;2023-04-25T05:03:00;5.20;99.90
57753;DHT22;43583;53.132;6.574;2023-04-25T05:05:25;5.40;99.90
57753;DHT22;43583;53.132;6.574;2023-04-25T05:07:51;5.50;99.90
57753;DHT22;43583;53.132;6.574;2023-04-25T05:10:19;5.60;99.90
57753;DHT22;43583;53.132;6.574;2023-04-25T05:12:45;5.60;99.90
57753;DHT22;43583;53.132;6.574;2023-04-25T05:15:11;5.60;99.90
57753;DHT22;43583;53.132;6.574;2023-04-25T05:17:37;5.50;99.90
57753;DHT22;43583;53.132;6.574;2023-04-25T05:20:05;5.50;99.90
57753;DHT22;43583;53.132;6.574;2023-04-25T05:22:31;5.50;99.90
57753;DHT22;43583;53.132;6.574;2023-04-25T05:24:56;5.40;99.90
57753;DHT22;43583;53.132;6.574;2023-04-25T05:27:22;5.40;99.90
57753;DHT22;43583;53.132;6.574;2023-04-25T05:29:47;5.30;99.90
57753;DHT22;43583;53.132;6.574;2023-04-25T05:32:13;5.30;99.90
57753;DHT22;43583;53.132;6.574;2023-04-25T05:34:39;5.30;99.90
57753;DHT22;43583;53.132;6.574;2023-04-25T05:37:05;5.30;99.90
57753;DHT22;43583;53.132;6.574;2023-04-25T05:39:31;5.40;99.90
57753;DHT22;43583;53.132;6.574;2023-04-25T05:41:57;5.50;99.90
57753;DHT22;43583;53.132;6.574;2023-04-25T05:44:23;6.00;99.90
57753;DHT22;43583;53.132;6.574;2023-04-25T05:46:49;6.70;99.90
57753;DHT22;43583;53.132;6.574;2023-04-25T05:49:15;7.70;99.90
57753;DHT22;43583;53.132;6.574;2023-04-25T05:51:40;8.90;99.90
57753;DHT22;43583;53.132;6.574;2023-04-25T05:54:06;9.80;99.90
57753;DHT22;43583;53.132;6.574;2023-04-25T05:56:31;10.70;99.90
57753;DHT22;43583;53.132;6.574;2023-04-25T05:58:57;11.50;99.90
57753;DHT22;43583;53.132;6.574;2023-04-25T06:01:23;12.20;99.90
57753;DHT22;43583;53.132;6.574;2023-04-25T06:03:51;12.60;99.90
57753;DHT22;43583;53.132;6.574;2023-04-25T06:06:18;13.20;99.90
57753;DHT22;43583;53.132;6.574;2023-04-25T06:08:43;13.50;99.90
57753;DHT22;43583;53.132;6.574;2023-04-25T06:11:11;13.00;99.90
57753;DHT22;43583;53.132;6.574;2023-04-25T06:13:37;12.20;99.90
57753;DHT22;43583;53.132;6.574;2023-04-25T06:16:03;11.40;99.90
57753;DHT22;43583;53.132;6.574;2023-04-25T06:18:28;10.70;99.90
57753;DHT22;43583;53.132;6.574;2023-04-25T06:20:54;10.10;99.90
57753;DHT22;43583;53.132;6.574;2023-04-25T06:23:20;9.60;99.90
57753;DHT22;43583;53.132;6.574;2023-04-25T06:25:45;9.90;99.90
57753;DHT22;43583;53.132;6.574;2023-04-25T06:28:11;10.40;99.90
57753;DHT22;43583;53.132;6.574;2023-04-25T06:30:37;10.60;99.90
57753;DHT22;43583;53.132;6.574;2023-04-25T06:33:02;11.40;99.90
57753;DHT22;43583;53.132;6.574;2023-04-25T06:35:28;12.40;99.90
57753;DHT22;43583;53.132;6.574;2023-04-25T06:37:53;13.20;99.90
57753;DHT22;43583;53.132;6.574;2023-04-25T06:40:19;13.30;99.90
57753;DHT22;43583;53.132;6.574;2023-04-25T06:42:45;13.00;99.90
57753;DHT22;43583;53.132;6.574;2023-04-25T06:45:10;12.90;99.90
57753;DHT22;43583;53.132;6.574;2023-04-25T06:47:36;13.10;99.90
57753;DHT22;43583;53.132;6.574;2023-04-25T06:50:02;13.30;99.90
57753;DHT22;43583;53.132;6.574;2023-04-25T06:52:28;13.70;99.90
57753;DHT22;43583;53.132;6.574;2023-04-25T06:54:53;14.20;98.70
57753;DHT22;43583;53.132;6.574;2023-04-25T06:57:19;13.90;97.10
57753;DHT22;43583;53.132;6.574;2023-04-25T06:59:44;12.80;96.60
57753;DHT22;43583;53.132;6.574;2023-04-25T07:02:10;12.20;99.90
57753;DHT22;43583;53.132;6.574;2023-04-25T07:04:36;11.30;99.70
57753;DHT22;43583;53.132;6.574;2023-04-25T07:07:01;10.60;99.90
57753;DHT22;43583;53.132;6.574;2023-04-25T07:09:28;10.10;99.90
57753;DHT22;43583;53.132;6.574;2023-04-25T07:11:54;9.60;99.90
57753;DHT22;43583;53.132;6.574;2023-04-25T07:14:20;9.60;99.90
57753;DHT22;43583;53.132;6.574;2023-04-25T07:16:45;10.60;99.90
57753;DHT22;43583;53.132;6.574;2023-04-25T07:19:12;11.50;99.90
57753;DHT22;43583;53.132;6.574;2023-04-25T07:21:37;12.30;99.90
57753;DHT22;43583;53.132;6.574;2023-04-25T07:24:03;12.90;99.90
57753;DHT22;43583;53.132;6.574;2023-04-25T07:26:29;13.20;98.50
57753;DHT22;43583;53.132;6.574;2023-04-25T07:28:54;12.70;96.10
57753;DHT22;43583;53.132;6.574;2023-04-25T07:31:21;12.00;98.10
57753;DHT22;43583;53.132;6.574;2023-04-25T07:33:47;11.30;98.60
57753;DHT22;43583;53.132;6.574;2023-04-25T07:36:12;11.00;97.00
57753;DHT22;43583;53.132;6.574;2023-04-25T07:38:39;10.80;98.50
57753;DHT22;43583;53.132;6.574;2023-04-25T07:41:05;10.70;99.70
57753;DHT22;43583;53.132;6.574;2023-04-25T07:43:30;10.40;99.70
57753;DHT22;43583;53.132;6.574;2023-04-25T07:45:56;10.30;99.90
57753;DHT22;43583;53.132;6.574;2023-04-25T07:48:22;10.30;99.90
57753;DHT22;43583;53.132;6.574;2023-04-25T07:50:48;10.40;99.90
57753;DHT22;43583;53.132;6.574;2023-04-25T07:53:14;10.50;99.90
57753;DHT22;43583;53.132;6.574;2023-04-25T07:55:40;10.40;99.90
57753;DHT22;43583;53.132;6.574;2023-04-25T07:58:10;10.50;99.90
57753;DHT22;43583;53.132;6.574;2023-04-25T08:00:36;10.30;99.90
57753;DHT22;43583;53.132;6.574;2023-04-25T08:03:01;10.00;99.90
57753;DHT22;43583;53.132;6.574;2023-04-25T08:05:28;9.70;98.20
57753;DHT22;43583;53.132;6.574;2023-04-25T08:07:53;9.50;99.90
57753;DHT22;43583;53.132;6.574;2023-04-25T08:10:19;9.40;99.90
57753;DHT22;43583;53.132;6.574;2023-04-25T08:12:45;10.20;99.90
57753;DHT22;43583;53.132;6.574;2023-04-25T08:15:11;11.30;99.90
57753;DHT22;43583;53.132;6.574;2023-04-25T08:17:39;12.80;99.90
57753;DHT22;43583;53.132;6.574;2023-04-25T08:20:05;13.30;96.60
57753;DHT22;43583;53.132;6.574;2023-04-25T08:22:31;13.10;96.90
57753;DHT22;43583;53.132;6.574;2023-04-25T08:24:59;12.20;98.20
57753;DHT22;43583;53.132;6.574;2023-04-25T08:27:25;11.30;99.10
57753;DHT22;43583;53.132;6.574;2023-04-25T08:29:51;10.60;99.90
57753;DHT22;43583;53.132;6.574;2023-04-25T08:32:18;10.00;99.90
57753;DHT22;43583;53.132;6.574;2023-04-25T08:34:43;9.60;99.90
57753;DHT22;43583;53.132;6.574;2023-04-25T08:37:09;9.00;99.90
57753;DHT22;43583;53.132;6.574;2023-04-25T08:39:36;8.80;99.90
57753;DHT22;43583;53.132;6.574;2023-04-25T08:42:05;9.50;99.90
57753;DHT22;43583;53.132;6.574;2023-04-25T08:44:34;10.50;99.90
57753;DHT22;43583;53.132;6.574;2023-04-25T08:47:05;11.80;99.90
57753;DHT22;43583;53.132;6.574;2023-04-25T08:49:32;11.90;98.50
57753;DHT22;43583;53.132;6.574;2023-04-25T08:52:03;11.90;99.80
57753;DHT22;43583;53.132;6.574;2023-04-25T08:54:31;11.60;98.40
57753;DHT22;43583;53.132;6.574;2023-04-25T08:57:00;11.50;99.90
57753;DHT22;43583;53.132;6.574;2023-04-25T08:59:30;11.00;98.20
57753;DHT22;43583;53.132;6.574;2023-04-25T09:01:55;11.10;99.20
57753;DHT22;43583;53.132;6.574;2023-04-25T09:04:22;10.90;98.30
57753;DHT22;43583;53.132;6.574;2023-04-25T09:06:48;11.00;98.20
57753;DHT22;43583;53.132;6.574;2023-04-25T09:09:13;11.20;99.90
57753;DHT22;43583;53.132;6.574;2023-04-25T09:11:40;11.40;99.30
57753;DHT22;43583;53.132;6.574;2023-04-25T09:14:21;11.90;98.10
57753;DHT22;43583;53.132;6.574;2023-04-25T09:19:30;13.70;98.30
57753;DHT22;43583;53.132;6.574;2023-04-25T09:22:00;14.10;97.70
57753;DHT22;43583;53.132;6.574;2023-04-25T09:24:36;14.00;94.90
57753;DHT22;43583;53.132;6.574;2023-04-25T09:27:19;14.10;96.00
57753;DHT22;43583;53.132;6.574;2023-04-25T09:29:45;14.00;93.20
57753;DHT22;43583;53.132;6.574;2023-04-25T09:32:18;14.30;97.40
57753;DHT22;43583;53.132;6.574;2023-04-25T09:34:49;14.20;96.10
57753;DHT22;43583;53.132;6.574;2023-04-25T09:37:29;13.90;94.50
57753;DHT22;43583;53.132;6.574;2023-04-25T09:39:56;13.90;97.50
57753;DHT22;43583;53.132;6.574;2023-04-25T09:42:24;13.80;96.30
57753;DHT22;43583;53.132;6.574;2023-04-25T09:44:53;12.80;95.50
57753;DHT22;43583;53.132;6.574;2023-04-25T09:47:19;11.80;95.90
57753;DHT22;43583;53.132;6.574;2023-04-25T09:49:47;11.20;97.60
57753;DHT22;43583;53.132;6.574;2023-04-25T09:52:21;10.80;98.40
57753;DHT22;43583;53.132;6.574;2023-04-25T09:54:47;10.50;99.60
57753;DHT22;43583;53.132;6.574;2023-04-25T09:57:20;10.50;99.90
57753;DHT22;43583;53.132;6.574;2023-04-25T09:59:47;10.70;99.90
57753;DHT22;43583;53.132;6.574;2023-04-25T10:02:15;10.70;99.90
57753;DHT22;43583;53.132;6.574;2023-04-25T10:04:41;10.40;99.40
57753;DHT22;43583;53.132;6.574;2023-04-25T10:07:08;10.60;98.50
57753;DHT22;43583;53.132;6.574;2023-04-25T10:09:38;10.80;95.60
57753;DHT22;43583;53.132;6.574;2023-04-25T10:12:06;11.10;97.90
57753;DHT22;43583;53.132;6.574;2023-04-25T10:14:32;11.40;96.90
57753;DHT22;43583;53.132;6.574;2023-04-25T10:16:59;11.50;96.10
57753;DHT22;43583;53.132;6.574;2023-04-25T10:19:26;11.80;97.00
57753;DHT22;43583;53.132;6.574;2023-04-25T10:22:18;11.90;96.90
57753;DHT22;43583;53.132;6.574;2023-04-25T10:24:46;12.20;98.60
57753;DHT22;43583;53.132;6.574;2023-04-25T10:27:13;12.10;96.80
57753;DHT22;43583;53.132;6.574;2023-04-25T10:29:41;11.90;97.90
57753;DHT22;43583;53.132;6.574;2023-04-25T10:32:08;11.60;97.00
57753;DHT22;43583;53.132;6.574;2023-04-25T10:34:42;11.00;97.60
57753;DHT22;43583;53.132;6.574;2023-04-25T10:37:11;10.60;99.20
57753;DHT22;43583;53.132;6.574;2023-04-25T10:39:39;10.30;99.90
57753;DHT22;43583;53.132;6.574;2023-04-25T10:42:05;10.10;99.90
57753;DHT22;43583;53.132;6.574;2023-04-25T10:44:31;10.50;99.90
57753;DHT22;43583;53.132;6.574;2023-04-25T10:47:01;11.20;99.90
57753;DHT22;43583;53.132;6.574;2023-04-25T10:49:36;11.90;99.90
57753;DHT22;43583;53.132;6.574;2023-04-25T10:52:18;11.90;99.90
57753;DHT22;43583;53.132;6.574;2023-04-25T10:54:51;12.00;98.40
57753;DHT22;43583;53.132;6.574;2023-04-25T11:02:43;11.00;97.70
57753;DHT22;43583;53.132;6.574;2023-04-25T11:05:14;10.70;97.10
57753;DHT22;43583;53.132;6.574;2023-04-25T11:07:50;10.80;98.90
57753;DHT22;43583;53.132;6.574;2023-04-25T11:10:17;11.20;99.90
57753;DHT22;43583;53.132;6.574;2023-04-25T11:12:44;11.60;99.90
57753;DHT22;43583;53.132;6.574;2023-04-25T11:15:19;11.70;99.90
57753;DHT22;43583;53.132;6.574;2023-04-25T11:17:47;11.50;99.90
57753;DHT22;43583;53.132;6.574;2023-04-25T11:20:13;11.50;99.20
57753;DHT22;43583;53.132;6.574;2023-04-25T11:22:41;11.70;99.50
57753;DHT22;43583;53.132;6.574;2023-04-25T11:25:08;12.00;98.60
57753;DHT22;43583;53.132;6.574;2023-04-25T11:27:50;11.90;93.50
57753;DHT22;43583;53.132;6.574;2023-04-25T11:30:19;12.00;93.20
57753;DHT22;43583;53.132;6.574;2023-04-25T11:32:51;12.20;97.20
57753;DHT22;43583;53.132;6.574;2023-04-25T11:35:20;12.10;95.70
57753;DHT22;43583;53.132;6.574;2023-04-25T11:37:48;12.40;97.20
57753;DHT22;43583;53.132;6.574;2023-04-25T11:40:18;12.50;94.00
57753;DHT22;43583;53.132;6.574;2023-04-25T11:42:47;12.40;95.40
57753;DHT22;43583;53.132;6.574;2023-04-25T11:45:13;12.00;94.20
57753;DHT22;43583;53.132;6.574;2023-04-25T11:47:39;11.70;96.40
57753;DHT22;43583;53.132;6.574;2023-04-25T11:50:08;11.80;96.90
57753;DHT22;43583;53.132;6.574;2023-04-25T11:55:16;12.00;96.10
57753;DHT22;43583;53.132;6.574;2023-04-25T11:57:43;12.00;96.50
57753;DHT22;43583;53.132;6.574;2023-04-25T12:00:17;12.00;97.90
57753;DHT22;43583;53.132;6.574;2023-04-25T12:02:45;12.10;95.40
57753;DHT22;43583;53.132;6.574;2023-04-25T12:05:13;12.20;96.90
57753;DHT22;43583;53.132;6.574;2023-04-25T12:07:41;12.00;95.80
57753;DHT22;43583;53.132;6.574;2023-04-25T12:10:13;12.30;96.50
57753;DHT22;43583;53.132;6.574;2023-04-25T12:12:44;12.40;97.60
57753;DHT22;43583;53.132;6.574;2023-04-25T12:15:14;12.80;97.10
57753;DHT22;43583;53.132;6.574;2023-04-25T12:17:42;13.00;97.40
57753;DHT22;43583;53.132;6.574;2023-04-25T12:20:10;12.50;94.00
57753;DHT22;43583;53.132;6.574;2023-04-25T12:22:36;12.10;95.30
57753;DHT22;43583;53.132;6.574;2023-04-25T12:25:04;11.60;95.00
57753;DHT22;43583;53.132;6.574;2023-04-25T12:27:31;11.40;94.60
57753;DHT22;43583;53.132;6.574;2023-04-25T12:29:58;11.20;95.40
57753;DHT22;43583;53.132;6.574;2023-04-25T12:32:24;10.90;94.70
57753;DHT22;43583;53.132;6.574;2023-04-25T12:34:51;10.80;95.70
57753;DHT22;43583;53.132;6.574;2023-04-25T12:37:17;10.70;96.70
57753;DHT22;43583;53.132;6.574;2023-04-25T12:39:43;10.60;96.70
57753;DHT22;43583;53.132;6.574;2023-04-25T12:42:08;10.60;96.50
57753;DHT22;43583;53.132;6.574;2023-04-25T12:44:37;10.60;96.70
57753;DHT22;43583;53.132;6.574;2023-04-25T12:47:03;10.60;96.90
57753;DHT22;43583;53.132;6.574;2023-04-25T12:49:29;10.60;96.50
57753;DHT22;43583;53.132;6.574;2023-04-25T12:51:55;10.70;96.00
57753;DHT22;43583;53.132;6.574;2023-04-25T12:54:20;10.80;96.40
57753;DHT22;43583;53.132;6.574;2023-04-25T12:56:46;10.90;96.60
57753;DHT22;43583;53.132;6.574;2023-04-25T12:59:12;11.10;97.60
57753;DHT22;43583;53.132;6.574;2023-04-25T13:01:38;11.00;97.40
57753;DHT22;43583;53.132;6.574;2023-04-25T13:04:04;11.00;97.60
57753;DHT22;43583;53.132;6.574;2023-04-25T13:06:29;11.20;97.20
57753;DHT22;43583;53.132;6.574;2023-04-25T13:08:56;11.30;95.30
57753;DHT22;43583;53.132;6.574;2023-04-25T13:11:21;11.00;92.30
57753;DHT22;43583;53.132;6.574;2023-04-25T13:13:47;10.80;92.60
57753;DHT22;43583;53.132;6.574;2023-04-25T13:16:13;10.60;94.70
57753;DHT22;43583;53.132;6.574;2023-04-25T13:18:40;10.40;95.30
57753;DHT22;43583;53.132;6.574;2023-04-25T13:21:06;10.30;95.50
57753;DHT22;43583;53.132;6.574;2023-04-25T13:23:31;10.30;97.20
57753;DHT22;43583;53.132;6.574;2023-04-25T13:25:57;10.10;97.50
57753;DHT22;43583;53.132;6.574;2023-04-25T13:28:24;10.10;98.30
57753;DHT22;43583;53.132;6.574;2023-04-25T13:30:49;10.00;98.20
57753;DHT22;43583;53.132;6.574;2023-04-25T13:33:15;10.00;99.10
57753;DHT22;43583;53.132;6.574;2023-04-25T13:35:41;9.90;98.50
57753;DHT22;43583;53.132;6.574;2023-04-25T13:38:07;9.90;99.50
57753;DHT22;43583;53.132;6.574;2023-04-25T13:40:34;10.20;99.90
57753;DHT22;43583;53.132;6.574;2023-04-25T13:43:01;10.50;98.50
57753;DHT22;43583;53.132;6.574;2023-04-25T13:45:26;10.60;99.90
57753;DHT22;43583;53.132;6.574;2023-04-25T13:47:52;10.40;96.80
57753;DHT22;43583;53.132;6.574;2023-04-25T13:50:18;10.50;98.60
57753;DHT22;43583;53.132;6.574;2023-04-25T13:52:43;10.40;96.50
57753;DHT22;43583;53.132;6.574;2023-04-25T13:55:13;10.40;96.90
57753;DHT22;43583;53.132;6.574;2023-04-25T13:57:39;10.20;96.10
57753;DHT22;43583;53.132;6.574;2023-04-25T14:00:05;10.30;95.80
57753;DHT22;43583;53.132;6.574;2023-04-25T14:02:37;10.40;96.10
57753;DHT22;43583;53.132;6.574;2023-04-25T14:05:04;10.70;95.00
57753;DHT22;43583;53.132;6.574;2023-04-25T14:07:30;10.90;93.90
57753;DHT22;43583;53.132;6.574;2023-04-25T14:09:56;11.10;95.30
57753;DHT22;43583;53.132;6.574;2023-04-25T14:12:24;11.50;96.60
57753;DHT22;43583;53.132;6.574;2023-04-25T14:14:50;11.70;95.30
57753;DHT22;43583;53.132;6.574;2023-04-25T14:17:16;11.80;95.70
57753;DHT22;43583;53.132;6.574;2023-04-25T14:19:42;11.90;95.70
57753;DHT22;43583;53.132;6.574;2023-04-25T14:22:10;12.10;96.20
57753;DHT22;43583;53.132;6.574;2023-04-25T14:24:39;12.00;96.30
57753;DHT22;43583;53.132;6.574;2023-04-25T14:27:05;12.20;95.70
57753;DHT22;43583;53.132;6.574;2023-04-25T14:29:31;12.10;95.00
57753;DHT22;43583;53.132;6.574;2023-04-25T14:31:56;11.40;96.30
57753;DHT22;43583;53.132;6.574;2023-04-25T14:34:30;11.00;98.10
57753;DHT22;43583;53.132;6.574;2023-04-25T14:36:56;10.80;98.20
57753;DHT22;43583;53.132;6.574;2023-04-25T14:39:34;10.50;95.70
57753;DHT22;43583;53.132;6.574;2023-04-25T14:42:03;10.20;95.00
57753;DHT22;43583;53.132;6.574;2023-04-25T14:44:28;10.40;97.30
57753;DHT22;43583;53.132;6.574;2023-04-25T14:46:54;10.30;96.70
57753;DHT22;43583;53.132;6.574;2023-04-25T14:49:20;10.20;97.00
57753;DHT22;43583;53.132;6.574;2023-04-25T14:51:46;10.40;95.40
57753;DHT22;43583;53.132;6.574;2023-04-25T14:54:12;10.50;96.60
57753;DHT22;43583;53.132;6.574;2023-04-25T14:56:38;10.60;96.40
57753;DHT22;43583;53.132;6.574;2023-04-25T14:59:03;10.50;96.30
57753;DHT22;43583;53.132;6.574;2023-04-25T15:01:29;10.20;97.40
57753;DHT22;43583;53.132;6.574;2023-04-25T15:03:55;10.00;98.20
57753;DHT22;43583;53.132;6.574;2023-04-25T15:06:21;9.80;98.80
57753;DHT22;43583;53.132;6.574;2023-04-25T15:08:52;9.70;99.20
57753;DHT22;43583;53.132;6.574;2023-04-25T15:11:30;9.50;98.90
57753;DHT22;43583;53.132;6.574;2023-04-25T15:13:56;9.60;99.00
57753;DHT22;43583;53.132;6.574;2023-04-25T15:16:24;9.40;98.90
57753;DHT22;43583;53.132;6.574;2023-04-25T15:18:56;9.40;99.10
57753;DHT22;43583;53.132;6.574;2023-04-25T15:21:28;9.40;98.80
57753;DHT22;43583;53.132;6.574;2023-04-25T15:23:57;9.30;98.00
57753;DHT22;43583;53.132;6.574;2023-04-25T15:26:23;9.20;98.80
57753;DHT22;43583;53.132;6.574;2023-04-25T15:28:52;9.20;99.30
57753;DHT22;43583;53.132;6.574;2023-04-25T15:31:18;9.50;99.90
57753;DHT22;43583;53.132;6.574;2023-04-25T15:33:43;9.40;99.10
57753;DHT22;43583;53.132;6.574;2023-04-25T15:36:12;9.30;99.40
57753;DHT22;43583;53.132;6.574;2023-04-25T15:38:53;9.10;99.40
57753;DHT22;43583;53.132;6.574;2023-04-25T15:41:19;9.00;99.90
57753;DHT22;43583;53.132;6.574;2023-04-25T15:43:47;8.90;99.90
57753;DHT22;43583;53.132;6.574;2023-04-25T15:46:13;8.70;98.90